ESSV/VBY METAR and TAF weather

Enter ICAO airport designator
Station Type Date Time Source
ESSV METAR 2019/04/18 20:50 UTC NOAA

ESSV 182050Z AUTO 00000KT 9999 NCD M01/M04 Q1036


Station Type Date Time Source
ESSV Decoded METAR 2019/04/18 20:50 UTC NOAA

Visby Flygplats, Sweden (ESSV) 57-40N 018-21E 47M
Apr 18, 2019 - 04:50 PM EDT / 2019.04.18 2050 UTC
Wind: Calm:0
Visibility: greater than 7 mile(s):0
Temperature: 30 F (-1 C)
Dew Point: 24 F (-4 C)
Relative Humidity: 80%
Pressure (altimeter): 30.59 in. Hg (1036 hPa)
ob: ESSV 182050Z AUTO 00000KT 9999 NCD M01/M04 Q1036
cycle: 21

Station Type Date Time Source
ESSV TAF 2017/09/20 09:39 UTC NOAA

TAF COR TAF COR ESSV 200840Z 2009/2021 10005KT 9999 BKN030 PROB40 2009/2016 4000 TS SHRA BKN015CB

Example: see airport list